Time;durP1;ratioP1;P1;durP2;ratioP2;P2;SDS_P1;SDS_P2;PMS_P1;PMS_P2;Temp;Humidity;BMP_temperature;BMP_pressure;BME280_temperature;BME280_humidity;BME280_pressure;Samples;Min_cycle;Max_cycle;Signal;HPM_P1;HPM_P2
2023/08/20 00:00:22;;;;;;;5.47;1.83;;;16.30;99.90;;;;;;5113834;28;20167;-64
2023/08/20 00:02:54;;;;;;;4.88;1.83;;;16.30;99.90;;;;;;5113865;28;20368;-65
2023/08/20 00:05:20;;;;;;;4.07;2.17;;;16.20;99.90;;;;;;5113813;28;20039;-64
2023/08/20 00:07:46;;;;;;;5.28;1.40;;;16.20;99.90;;;;;;5112082;28;20192;-64
2023/08/20 00:10:11;;;;;;;4.72;1.70;;;16.20;99.90;;;;;;5113714;28;20111;-65
2023/08/20 00:12:37;;;;;;;5.28;2.33;;;16.30;99.90;;;;;;5113479;28;20039;-66
2023/08/20 00:15:04;;;;;;;4.63;2.15;;;16.40;99.90;;;;;;5113692;28;20043;-66
2023/08/20 00:17:41;;;;;;;9.07;3.00;;;16.20;99.90;;;;;;5113248;28;20043;-66
2023/08/20 00:20:18;;;;;;;7.03;2.35;;;16.20;99.90;;;;;;5113717;28;20476;-65
2023/08/20 00:22:45;;;;;;;9.00;2.85;;;16.10;99.90;;;;;;5112789;28;20044;-66
2023/08/20 00:25:12;;;;;;;7.50;2.00;;;16.10;99.90;;;;;;5113471;28;20040;-66
2023/08/20 00:27:39;;;;;;;6.13;2.25;;;16.10;99.90;;;;;;5113569;28;20044;-66
2023/08/20 00:30:06;;;;;;;3.72;2.03;;;16.10;99.90;;;;;;5113175;28;20124;-66
2023/08/20 00:32:31;;;;;;;3.58;1.45;;;16.00;99.90;;;;;;5112030;28;20035;-66
2023/08/20 00:34:57;;;;;;;5.15;1.88;;;16.00;99.90;;;;;;5113506;28;20051;-66
2023/08/20 00:37:22;;;;;;;6.45;2.28;;;16.50;99.90;;;;;;5112085;28;20387;-66
2023/08/20 00:39:48;;;;;;;2.58;1.67;;;16.00;99.90;;;;;;5113397;28;20028;-66
2023/08/20 00:42:14;;;;;;;6.00;2.10;;;16.00;99.90;;;;;;5113358;28;20438;-66
2023/08/20 00:44:46;;;;;;;6.90;2.83;;;16.00;99.90;;;;;;5113356;28;20040;-66
2023/08/20 00:47:16;;;;;;;8.45;2.58;;;15.90;99.90;;;;;;5113351;28;20038;-66
2023/08/20 00:49:42;;;;;;;4.85;2.35;;;15.90;99.90;;;;;;5113339;28;20039;-66
2023/08/20 00:52:12;;;;;;;4.30;1.95;;;16.50;99.90;;;;;;5113203;28;20554;-66
2023/08/20 00:54:39;;;;;;;3.45;2.38;;;15.90;99.90;;;;;;5113193;28;20101;-66
2023/08/20 00:57:07;;;;;;;5.03;2.45;;;15.90;99.90;;;;;;5111561;28;20039;-66
2023/08/20 00:59:33;;;;;;;3.85;2.35;;;16.30;99.90;;;;;;5113252;28;20451;-66
2023/08/20 01:02:00;;;;;;;4.03;1.88;;;15.80;99.90;;;;;;5111664;28;20396;-66
2023/08/20 01:04:27;;;;;;;6.32;2.33;;;15.80;99.90;;;;;;5112795;28;20043;-66
2023/08/20 01:06:55;;;;;;;4.15;2.08;;;15.80;99.90;;;;;;5112857;28;20536;-66
2023/08/20 01:09:42;;;;;;;8.13;3.28;;;15.80;99.90;;;;;;5111515;28;20052;-66
2023/08/20 01:12:09;;;;;;;8.60;2.80;;;15.90;99.90;;;;;;5113125;28;20462;-66
2023/08/20 01:14:35;;;;;;;7.78;2.33;;;15.90;99.90;;;;;;5113150;28;20119;-66
2023/08/20 01:17:01;;;;;;;5.03;2.42;;;15.80;99.90;;;;;;5113027;28;20479;-66
2023/08/20 01:19:27;;;;;;;6.32;2.15;;;15.80;99.90;;;;;;5112962;28;20050;-66
2023/08/20 01:22:17;;;;;;;3.53;2.20;;;16.30;99.90;;;;;;5113065;28;20039;-64
2023/08/20 01:25:38;;;;;;;8.90;2.55;;;15.70;99.90;;;;;;5113044;28;20039;-64
2023/08/20 01:28:21;;;;;;;5.50;2.50;;;15.70;99.90;;;;;;5071349;28;20056;-64
2023/08/20 01:30:48;;;;;;;7.68;1.80;;;15.80;99.90;;;;;;5112902;28;20044;-64
2023/08/20 01:33:14;;;;;;;4.25;2.30;;;15.70;99.90;;;;;;5114711;28;20039;-64
2023/08/20 01:35:40;;;;;;;7.97;3.03;;;15.70;99.90;;;;;;5116682;28;20502;-64
2023/08/20 01:38:06;;;;;;;4.25;2.25;;;15.90;99.90;;;;;;5116571;28;20031;-64
2023/08/20 01:40:31;;;;;;;5.05;2.17;;;15.80;99.90;;;;;;5114856;28;20043;-64
2023/08/20 01:42:57;;;;;;;3.95;2.30;;;15.80;99.90;;;;;;5116600;28;20387;-64
2023/08/20 01:45:23;;;;;;;6.22;2.25;;;15.80;99.90;;;;;;5116482;28;20127;-64
2023/08/20 01:47:49;;;;;;;4.55;1.92;;;15.80;99.90;;;;;;5116402;28;20043;-64
2023/08/20 01:50:15;;;;;;;13.05;3.30;;;15.80;99.90;;;;;;5116251;28;20034;-64
2023/08/20 01:52:40;;;;;;;4.95;2.42;;;15.80;99.90;;;;;;5116355;28;20118;-64
2023/08/20 01:55:06;;;;;;;5.10;2.45;;;15.70;99.90;;;;;;5116236;28;20386;-64
2023/08/20 01:57:32;;;;;;;5.68;3.13;;;15.80;99.90;;;;;;5116278;28;20032;-64
2023/08/20 01:59:58;;;;;;;5.45;2.78;;;15.80;99.90;;;;;;5115891;28;20148;-64
2023/08/20 02:02:24;;;;;;;6.60;2.78;;;15.80;99.90;;;;;;5116254;28;20048;-64
2023/08/20 02:04:50;;;;;;;11.20;3.15;;;16.00;99.90;;;;;;5116097;28;20131;-64
2023/08/20 02:07:15;;;;;;;6.15;2.47;;;16.40;99.90;;;;;;5115603;28;20051;-64
2023/08/20 02:09:42;;;;;;;7.80;3.33;;;15.70;99.90;;;;;;5116000;28;20546;-64
2023/08/20 02:12:08;;;;;;;5.80;2.55;;;16.60;99.90;;;;;;5115958;28;20127;-66
2023/08/20 02:14:34;;;;;;;3.92;2.38;;;15.80;99.90;;;;;;5115967;28;20398;-66
2023/08/20 02:17:01;;;;;;;4.80;3.00;;;15.80;99.90;;;;;;5114451;28;20046;-66
2023/08/20 02:19:27;;;;;;;8.43;2.85;;;15.70;99.90;;;;;;5115585;28;20433;-66
2023/08/20 02:21:53;;;;;;;4.15;2.38;;;15.70;99.90;;;;;;5115759;28;20036;-66
2023/08/20 02:24:19;;;;;;;9.15;3.08;;;15.70;99.90;;;;;;5115701;28;20115;-66
2023/08/20 02:26:44;;;;;;;6.85;3.15;;;15.60;99.90;;;;;;5115574;28;20046;-66
2023/08/20 02:29:10;;;;;;;6.18;2.78;;;15.70;99.90;;;;;;5115627;28;20130;-66
2023/08/20 02:31:36;;;;;;;4.97;2.50;;;15.70;99.90;;;;;;5115364;28;20123;-64
2023/08/20 02:34:02;;;;;;;4.03;2.60;;;15.70;99.90;;;;;;5115230;28;20051;-64
2023/08/20 02:36:27;;;;;;;8.30;3.08;;;15.80;99.90;;;;;;5115219;28;20040;-64
2023/08/20 02:38:53;;;;;;;7.95;4.53;;;15.70;99.90;;;;;;5115449;28;20167;-64
2023/08/20 02:41:18;;;;;;;5.88;3.00;;;15.70;99.90;;;;;;5115096;28;20498;-64
2023/08/20 02:43:45;;;;;;;4.85;2.88;;;15.70;99.90;;;;;;5113834;28;20043;-64
2023/08/20 02:46:10;;;;;;;6.22;3.28;;;15.70;99.90;;;;;;5114423;28;20043;-64
2023/08/20 02:48:36;;;;;;;4.50;2.28;;;15.70;99.90;;;;;;5115308;28;20043;-64
2023/08/20 02:51:02;;;;;;;5.65;3.72;;;16.40;99.90;;;;;;5115136;28;20044;-64
2023/08/20 02:53:28;;;;;;;5.40;3.00;;;15.70;99.90;;;;;;5114816;28;20071;-64
2023/08/20 02:55:54;;;;;;;6.85;3.63;;;15.70;99.90;;;;;;5115071;28;20071;-64
2023/08/20 02:58:19;;;;;;;7.28;3.47;;;15.80;99.90;;;;;;5114734;28;20039;-64
2023/08/20 03:00:45;;;;;;;7.10;3.45;;;15.90;99.90;;;;;;5115026;28;20047;-64
2023/08/20 03:03:11;;;;;;;7.25;4.40;;;15.70;99.90;;;;;;5114940;28;20043;-64
2023/08/20 03:05:37;;;;;;;14.55;3.90;;;15.70;99.90;;;;;;5114763;28;20432;-64
2023/08/20 03:08:03;;;;;;;5.88;3.35;;;15.70;99.90;;;;;;5114894;28;20081;-64
2023/08/20 03:10:30;;;;;;;7.57;3.55;;;15.60;99.90;;;;;;5114471;28;20043;-64
2023/08/20 03:12:55;;;;;;;6.53;3.20;;;15.70;99.90;;;;;;5114766;28;20076;-64
2023/08/20 03:15:21;;;;;;;5.97;3.40;;;15.60;99.90;;;;;;5114690;28;20031;-64
2023/08/20 03:17:47;;;;;;;6.43;3.53;;;15.60;99.90;;;;;;5114362;28;20067;-64
2023/08/20 03:20:12;;;;;;;6.75;3.53;;;15.60;99.90;;;;;;5114237;28;20036;-64
2023/08/20 03:22:38;;;;;;;9.02;4.07;;;15.60;99.90;;;;;;5114740;28;20050;-64
2023/08/20 03:25:05;;;;;;;7.05;4.13;;;15.60;99.90;;;;;;5114561;28;20386;-64
2023/08/20 03:27:30;;;;;;;8.50;3.67;;;15.50;99.90;;;;;;5114135;28;20097;-64
2023/08/20 03:29:56;;;;;;;5.40;3.50;;;15.70;99.90;;;;;;5114442;28;20071;-64
2023/08/20 03:32:23;;;;;;;5.95;3.38;;;15.50;99.90;;;;;;5112736;28;20422;-64
2023/08/20 03:34:49;;;;;;;6.50;4.20;;;15.40;99.90;;;;;;5114297;28;20047;-64
2023/08/20 03:37:15;;;;;;;8.38;3.67;;;15.50;99.90;;;;;;5114306;28;20472;-64
2023/08/20 03:39:40;;;;;;;7.15;3.17;;;15.50;99.90;;;;;;5112657;28;20035;-64
2023/08/20 03:42:06;;;;;;;6.85;3.92;;;15.40;99.90;;;;;;5114344;28;20039;-64
2023/08/20 03:44:31;;;;;;;5.70;2.63;;;15.40;99.90;;;;;;5114160;28;20081;-64
2023/08/20 03:46:57;;;;;;;9.90;3.88;;;16.10;99.90;;;;;;5114095;28;20510;-64
2023/08/20 03:49:23;;;;;;;7.72;3.33;;;15.40;99.90;;;;;;5114087;28;20035;-64
2023/08/20 03:51:48;;;;;;;5.20;3.50;;;15.40;99.90;;;;;;5112415;28;20050;-64
2023/08/20 03:54:14;;;;;;;10.20;3.83;;;15.40;99.90;;;;;;5113745;28;20092;-64
2023/08/20 03:56:40;;;;;;;8.80;4.00;;;15.70;99.90;;;;;;5112993;28;20048;-64
2023/08/20 03:59:06;;;;;;;6.55;3.22;;;15.40;99.90;;;;;;5113939;28;20399;-64
2023/08/20 04:01:32;;;;;;;6.68;3.95;;;15.40;99.90;;;;;;5112332;28;20036;-64
2023/08/20 04:03:57;;;;;;;4.32;3.20;;;15.40;99.90;;;;;;5113607;28;20403;-64
2023/08/20 04:06:23;;;;;;;6.03;4.05;;;15.40;99.90;;;;;;5112035;28;20406;-64
2023/08/20 04:08:48;;;;;;;4.63;3.25;;;15.40;99.90;;;;;;5112269;28;20100;-64
2023/08/20 04:11:14;;;;;;;9.57;3.85;;;15.40;99.90;;;;;;5113653;28;20549;-64
2023/08/20 04:13:42;;;;;;;4.47;3.50;;;15.40;99.90;;;;;;5112201;28;20047;-64
2023/08/20 04:16:08;;;;;;;12.20;4.00;;;15.30;99.90;;;;;;5113719;28;20036;-64
2023/08/20 04:18:34;;;;;;;9.82;3.60;;;15.40;99.90;;;;;;5113379;28;20049;-64
2023/08/20 04:20:59;;;;;;;8.65;4.75;;;15.40;99.90;;;;;;5113405;28;20089;-64
2023/08/20 04:23:25;;;;;;;6.05;3.45;;;15.40;99.90;;;;;;5112006;28;20047;-64
2023/08/20 04:25:50;;;;;;;5.43;3.55;;;15.30;99.90;;;;;;5112008;28;20118;-64
2023/08/20 04:28:16;;;;;;;7.72;4.05;;;15.40;99.90;;;;;;5113285;28;20536;-64
2023/08/20 04:30:43;;;;;;;6.88;2.83;;;16.00;99.90;;;;;;5113477;28;20043;-64
2023/08/20 04:33:09;;;;;;;7.47;3.47;;;15.40;99.90;;;;;;5112435;28;20040;-66
2023/08/20 04:35:34;;;;;;;8.98;3.70;;;15.70;99.90;;;;;;5113440;28;20043;-66
2023/08/20 04:38:00;;;;;;;9.00;3.70;;;15.40;99.90;;;;;;5113092;28;20395;-66
2023/08/20 04:40:26;;;;;;;5.30;3.03;;;15.40;99.90;;;;;;5113128;28;20104;-66
2023/08/20 04:42:51;;;;;;;9.40;3.22;;;15.40;99.90;;;;;;5113436;28;20032;-66
2023/08/20 04:45:19;;;;;;;4.18;3.20;;;15.70;99.90;;;;;;5113412;28;20540;-66
2023/08/20 04:47:45;;;;;;;4.72;3.28;;;15.40;99.90;;;;;;5113424;28;20459;-66
2023/08/20 04:50:11;;;;;;;8.70;3.63;;;16.00;99.90;;;;;;5112879;28;20075;-66
2023/08/20 04:52:36;;;;;;;5.00;3.33;;;15.40;99.90;;;;;;5113425;28;20120;-65
2023/08/20 04:55:03;;;;;;;6.97;3.55;;;15.40;99.90;;;;;;5113299;28;20042;-66
2023/08/20 04:57:28;;;;;;;6.05;3.60;;;15.40;99.90;;;;;;5111690;28;20039;-66
2023/08/20 04:59:54;;;;;;;6.40;3.03;;;15.30;99.90;;;;;;5113158;28;20471;-66
2023/08/20 05:02:20;;;;;;;6.68;3.45;;;15.50;99.90;;;;;;5113230;28;20501;-66
2023/08/20 05:04:45;;;;;;;6.78;4.25;;;15.50;99.90;;;;;;5111924;28;20123;-66
2023/08/20 05:07:11;;;;;;;6.95;3.92;;;15.50;99.90;;;;;;5112987;28;20131;-66
2023/08/20 05:09:37;;;;;;;8.02;4.32;;;15.50;99.90;;;;;;5115657;28;20047;-66
2023/08/20 05:12:02;;;;;;;7.55;3.63;;;15.60;99.90;;;;;;5115459;28;20097;-66
2023/08/20 05:14:29;;;;;;;9.57;4.82;;;15.60;99.90;;;;;;5117070;28;20483;-66
2023/08/20 05:16:55;;;;;;;11.77;4.40;;;15.60;99.90;;;;;;5115838;28;20065;-66
2023/08/20 05:19:20;;;;;;;5.40;3.85;;;15.70;99.90;;;;;;5116946;28;20043;-66
2023/08/20 05:21:46;;;;;;;6.35;3.78;;;15.70;99.90;;;;;;5116685;28;20105;-66
2023/08/20 05:24:12;;;;;;;8.43;4.22;;;15.80;99.90;;;;;;5116874;28;20047;-66
2023/08/20 05:26:37;;;;;;;8.68;4.93;;;15.80;99.90;;;;;;5116876;28;20042;-66
2023/08/20 05:29:03;;;;;;;6.97;4.15;;;15.80;99.90;;;;;;5116449;28;20032;-65
2023/08/20 05:31:28;;;;;;;7.65;3.85;;;15.90;99.90;;;;;;5116680;28;20036;-66
2023/08/20 05:33:54;;;;;;;11.25;5.70;;;15.90;99.90;;;;;;5116443;28;20028;-66
2023/08/20 05:36:20;;;;;;;8.07;4.45;;;15.90;99.90;;;;;;5116368;28;20499;-66
2023/08/20 05:38:45;;;;;;;9.30;4.78;;;16.00;99.90;;;;;;5115357;28;20027;-66
2023/08/20 05:41:11;;;;;;;9.63;4.15;;;16.10;99.90;;;;;;5116547;28;20047;-66
2023/08/20 05:43:37;;;;;;;6.25;3.95;;;16.10;99.90;;;;;;5116429;28;20035;-66
2023/08/20 05:46:02;;;;;;;7.50;4.60;;;16.20;99.90;;;;;;5116477;28;20463;-66
2023/08/20 05:48:29;;;;;;;9.57;4.47;;;16.30;99.90;;;;;;5116471;28;20032;-66
2023/08/20 05:50:55;;;;;;;7.20;3.88;;;16.40;99.90;;;;;;5116353;28;20559;-66
2023/08/20 05:53:22;;;;;;;6.20;3.63;;;16.40;99.90;;;;;;5116417;28;20428;-64
2023/08/20 05:55:48;;;;;;;7.82;3.90;;;16.50;99.90;;;;;;5114808;28;20039;-64
2023/08/20 05:58:13;;;;;;;9.45;3.88;;;16.60;99.90;;;;;;5114669;28;20513;-64
2023/08/20 06:00:39;;;;;;;10.82;3.78;;;16.60;99.90;;;;;;5116277;28;20483;-64
2023/08/20 06:03:07;;;;;;;5.82;3.50;;;16.70;99.90;;;;;;5115066;28;20097;-66
2023/08/20 06:05:33;;;;;;;5.93;3.20;;;16.70;99.90;;;;;;5114613;28;20118;-66
2023/08/20 06:07:58;;;;;;;6.32;3.40;;;16.80;99.90;;;;;;5114569;28;20047;-66
2023/08/20 06:10:24;;;;;;;6.25;3.35;;;16.90;99.90;;;;;;5115983;28;20505;-66
2023/08/20 06:12:50;;;;;;;11.35;3.75;;;17.00;99.90;;;;;;5115981;28;20040;-66
2023/08/20 06:15:15;;;;;;;6.68;4.15;;;17.00;99.90;;;;;;5114386;28;20039;-66
2023/08/20 06:17:41;;;;;;;8.93;3.55;;;17.10;99.90;;;;;;5115687;28;20475;-66
2023/08/20 06:20:08;;;;;;;5.18;2.67;;;17.10;99.90;;;;;;5114819;28;20490;-66
2023/08/20 06:22:34;;;;;;;3.67;2.67;;;17.20;99.90;;;;;;5115600;28;20043;-66
2023/08/20 06:25:00;;;;;;;5.28;2.85;;;17.40;99.90;;;;;;5114432;28;20054;-66
2023/08/20 06:27:26;;;;;;;4.85;3.17;;;17.40;99.90;;;;;;5115750;28;20035;-66
2023/08/20 06:29:51;;;;;;;6.50;3.30;;;17.50;99.90;;;;;;5115724;28;20042;-66
2023/08/20 06:32:17;;;;;;;7.82;3.22;;;17.60;99.90;;;;;;5115396;28;20036;-66
2023/08/20 06:34:42;;;;;;;4.80;2.35;;;18.30;99.90;;;;;;5115650;28;20031;-66
2023/08/20 06:37:08;;;;;;;6.35;2.63;;;17.80;99.90;;;;;;5115236;28;20032;-66
2023/08/20 06:39:34;;;;;;;7.78;2.58;;;17.90;99.90;;;;;;5115470;28;20042;-66
2023/08/20 06:42:01;;;;;;;4.90;2.83;;;18.10;99.90;;;;;;5115534;28;20435;-66
2023/08/20 06:44:26;;;;;;;5.18;2.60;;;18.20;99.90;;;;;;5115476;28;20075;-66
2023/08/20 06:46:52;;;;;;;5.13;2.22;;;18.30;99.90;;;;;;5115427;28;20082;-66
2023/08/20 06:49:17;;;;;;;6.30;2.33;;;18.50;99.90;;;;;;5115387;28;20118;-66
2023/08/20 06:51:43;;;;;;;3.97;2.20;;;18.50;99.90;;;;;;5115256;28;20448;-66
2023/08/20 06:54:09;;;;;;;3.17;1.77;;;18.70;99.90;;;;;;5115203;28;20067;-66
2023/08/20 06:56:35;;;;;;;3.13;2.05;;;18.70;99.90;;;;;;5115185;28;20078;-66
2023/08/20 06:59:02;;;;;;;5.30;2.03;;;18.90;99.90;;;;;;5115124;28;20071;-66
2023/08/20 07:01:28;;;;;;;5.35;1.77;;;19.00;99.90;;;;;;5115024;28;20161;-66
2023/08/20 07:03:54;;;;;;;7.82;2.60;;;19.10;99.90;;;;;;5113235;28;20078;-66
2023/08/20 07:06:20;;;;;;;5.38;1.95;;;19.20;99.90;;;;;;5114699;28;20047;-65
2023/08/20 07:08:45;;;;;;;7.18;2.53;;;19.40;99.90;;;;;;5114913;28;20053;-66
2023/08/20 07:11:11;;;;;;;3.53;1.90;;;19.40;99.90;;;;;;5113268;28;20044;-66
2023/08/20 07:13:37;;;;;;;3.80;1.88;;;19.50;99.90;;;;;;5114933;28;20040;-66
2023/08/20 07:16:03;;;;;;;5.43;1.67;;;19.60;99.90;;;;;;5114706;28;20039;-66
2023/08/20 07:18:28;;;;;;;7.28;1.60;;;19.70;99.90;;;;;;5114437;28;20067;-67
2023/08/20 07:20:55;;;;;;;6.50;3.15;;;19.70;99.90;;;;;;5114283;28;20074;-66
2023/08/20 07:23:21;;;;;;;4.03;1.83;;;19.90;99.90;;;;;;5112671;28;20403;-72
2023/08/20 07:25:48;;;;;;;7.70;2.28;;;19.90;99.90;;;;;;5112958;28;20039;-70
2023/08/20 07:28:14;;;;;;;4.25;2.00;;;20.00;99.90;;;;;;5112948;28;20051;-70
2023/08/20 07:30:40;;;;;;;5.85;1.77;;;20.10;99.90;;;;;;5113658;28;20035;-71
2023/08/20 07:33:06;;;;;;;5.25;1.98;;;20.10;99.90;;;;;;5114064;28;20101;-71
2023/08/20 07:35:32;;;;;;;5.05;1.98;;;20.20;99.90;;;;;;5114013;28;20094;-71
2023/08/20 07:37:58;;;;;;;3.88;1.67;;;20.20;99.90;;;;;;5114021;28;20491;-72
2023/08/20 07:40:23;;;;;;;7.07;1.83;;;20.30;99.90;;;;;;5113809;28;20031;-72
2023/08/20 07:42:50;;;;;;;7.60;2.50;;;20.30;99.90;;;;;;5112728;28;20310;-70
2023/08/20 07:45:15;;;;;;;7.40;2.47;;;20.40;99.90;;;;;;5112484;28;20040;-70
2023/08/20 07:47:42;;;;;;;4.20;1.50;;;20.40;99.90;;;;;;5113899;28;20108;-67
2023/08/20 07:50:08;;;;;;;5.10;1.95;;;20.50;99.90;;;;;;5114230;28;20091;-66
2023/08/20 07:52:34;;;;;;;6.10;2.00;;;20.60;99.90;;;;;;5114034;28;20403;-66
2023/08/20 07:54:59;;;;;;;4.85;2.10;;;20.70;99.90;;;;;;5114048;28;20411;-66
2023/08/20 07:57:25;;;;;;;4.32;1.30;;;20.80;99.90;;;;;;5113950;28;20036;-67
2023/08/20 07:59:51;;;;;;;8.48;2.03;;;20.90;99.90;;;;;;5113633;28;20069;-66
2023/08/20 08:02:17;;;;;;;4.75;1.95;;;20.80;99.90;;;;;;5113704;28;20070;-67
2023/08/20 08:04:43;;;;;;;6.63;1.70;;;21.00;99.90;;;;;;5113886;28;20035;-67
2023/08/20 08:07:10;;;;;;;5.88;1.67;;;21.10;99.90;;;;;;5113517;28;20142;-66
2023/08/20 08:09:35;;;;;;;6.22;1.52;;;21.10;99.90;;;;;;5113805;28;20036;-66
2023/08/20 08:12:02;;;;;;;7.35;2.40;;;21.20;99.90;;;;;;5112105;28;20050;-73
2023/08/20 08:14:28;;;;;;;6.07;2.05;;;21.20;99.90;;;;;;5113647;28;20425;-71
2023/08/20 08:16:54;;;;;;;5.20;1.75;;;21.30;99.90;;;;;;5111999;28;20031;-71
2023/08/20 08:19:20;;;;;;;3.20;1.58;;;21.30;99.90;;;;;;5113344;28;20510;-71
2023/08/20 08:21:46;;;;;;;7.47;1.65;;;21.40;99.90;;;;;;5095075;28;20046;-71
2023/08/20 08:24:13;;;;;;;6.88;1.70;;;21.50;99.90;;;;;;5113404;28;20070;-75
2023/08/20 08:26:39;;;;;;;7.95;1.77;;;21.50;99.90;;;;;;5112022;28;20180;-68
2023/08/20 08:29:05;;;;;;;3.75;1.67;;;21.60;99.70;;;;;;5113355;28;20597;-68
2023/08/20 08:31:31;;;;;;;3.42;1.45;;;21.50;99.10;;;;;;5111810;28;20048;-69
2023/08/20 08:33:57;;;;;;;3.53;1.25;;;21.60;97.90;;;;;;5113282;28;20530;-70
2023/08/20 08:36:24;;;;;;;3.42;1.35;;;21.70;97.50;;;;;;5113409;28;20027;-69
2023/08/20 08:38:50;;;;;;;6.07;1.45;;;21.80;97.50;;;;;;5111732;28;20047;-71
2023/08/20 08:41:16;;;;;;;7.97;1.65;;;22.80;97.40;;;;;;5113405;28;20046;-71
2023/08/20 08:43:42;;;;;;;3.10;1.77;;;22.40;99.90;;;;;;5116114;28;20399;-71
2023/08/20 08:46:15;;;;;;;5.03;1.50;;;21.90;99.90;;;;;;5117618;28;20039;-71
2023/08/20 08:48:43;;;;;;;4.85;1.63;;;22.30;99.90;;;;;;5116348;28;20048;-71
2023/08/20 08:51:09;;;;;;;6.57;1.60;;;;;;;;;;5116126;28;20043;-70
2023/08/20 08:53:35;;;;;;;2.90;1.13;;;22.10;94.20;;;;;;5117646;28;20115;-71
2023/08/20 08:56:02;;;;;;;1.95;0.98;;;22.10;92.00;;;;;;5115951;28;20031;-71
2023/08/20 08:58:28;;;;;;;4.22;1.20;;;22.10;90.30;;;;;;5099148;28;20081;-70
2023/08/20 09:00:54;;;;;;;3.60;1.33;;;22.20;86.40;;;;;;5117402;28;20452;-71
2023/08/20 09:03:20;;;;;;;3.25;1.15;;;22.30;85.60;;;;;;5115991;28;20043;-71
2023/08/20 09:05:50;;;;;;;2.05;0.90;;;22.30;84.80;;;;;;5116840;28;20039;-72
2023/08/20 09:08:25;;;;;;;3.80;1.40;;;22.40;83.70;;;;;;5117304;28;20412;-71
2023/08/20 09:10:52;;;;;;;3.90;1.75;;;22.40;77.70;;;;;;5117230;28;20126;-71
2023/08/20 09:13:24;;;;;;;3.35;1.33;;;22.40;75.10;;;;;;5117130;28;20039;-71
2023/08/20 09:15:51;;;;;;;2.15;0.80;;;22.40;72.60;;;;;;5117127;28;20036;-71
2023/08/20 09:18:17;;;;;;;2.22;0.75;;;22.40;75.50;;;;;;5115448;28;20039;-71
2023/08/20 09:20:43;;;;;;;2.83;0.90;;;22.40;62.00;;;;;;5115321;28;20054;-72
2023/08/20 09:23:13;;;;;;;4.80;1.13;;;22.50;64.30;;;;;;5115660;28;20396;-71
2023/08/20 09:25:39;;;;;;;4.65;1.10;;;22.50;59.20;;;;;;5116959;28;20490;-71
2023/08/20 09:28:05;;;;;;;8.93;2.13;;;22.40;64.30;;;;;;5116907;28;20042;-71
2023/08/20 09:30:31;;;;;;;2.35;1.08;;;22.50;60.30;;;;;;5116813;28;20074;-71
2023/08/20 09:33:10;;;;;;;1.98;1.33;;;22.50;44.80;;;;;;5116751;28;20475;-70
2023/08/20 09:35:36;;;;;;;2.28;1.10;;;22.60;47.70;;;;;;5116823;28;20530;-70
2023/08/20 09:38:03;;;;;;;3.38;1.30;;;22.50;54.60;;;;;;5115098;28;20173;-70
2023/08/20 09:40:30;;;;;;;2.63;0.90;;;22.80;49.30;;;;;;5116706;28;20031;-70
2023/08/20 09:42:57;;;;;;;2.75;1.10;;;22.80;54.60;;;;;;5116717;28;20035;-70
2023/08/20 09:45:28;;;;;;;4.25;1.10;;;22.90;50.30;;;;;;5115014;28;20040;-70
2023/08/20 09:47:59;;;;;;;4.93;0.98;;;22.90;49.70;;;;;;5098252;28;20475;-70
2023/08/20 09:50:27;;;;;;;4.75;1.23;;;23.00;22.60;;;;;;5115959;28;20046;-72
2023/08/20 09:53:08;;;;;;;3.20;1.33;;;23.00;29.20;;;;;;5098230;28;20050;-71
2023/08/20 09:55:38;;;;;;;4.13;1.13;;;23.00;1.00;;;;;;5114729;28;20047;-71
2023/08/20 09:58:05;;;;;;;2.20;1.03;;;22.90;1.00;;;;;;5114763;28;20050;-71
2023/08/20 10:00:31;;;;;;;4.63;0.88;;;23.00;99.90;;;;;;5115876;28;20046;-71
2023/08/20 10:02:58;;;;;;;4.07;1.00;;;23.10;1.00;;;;;;5115090;28;20039;-71
2023/08/20 10:05:24;;;;;;;4.03;1.10;;;23.40;99.90;;;;;;5115960;28;20079;-71
2023/08/20 10:07:50;;;;;;;3.28;1.65;;;23.20;1.00;;;;;;5115701;28;20132;-78
2023/08/20 10:10:16;;;;;;;2.88;0.85;;;23.20;99.90;;;;;;5114536;28;20093;-70
2023/08/20 10:12:46;;;;;;;3.42;1.20;;;23.20;1.00;;;;;;5116149;28;20425;-71
2023/08/20 10:15:15;;;;;;;4.55;1.40;;;23.40;1.00;;;;;;5114704;28;20033;-71
2023/08/20 10:17:43;;;;;;;4.40;0.80;;;23.50;1.00;;;;;;5114107;28;20039;-70
2023/08/20 10:20:12;;;;;;;4.55;1.30;;;23.60;34.20;;;;;;5114451;28;20119;-71
2023/08/20 10:22:43;;;;;;;4.65;1.38;;;23.60;99.90;;;;;;5097611;28;20043;-70
2023/08/20 10:25:11;;;;;;;4.10;1.05;;;23.90;99.90;;;;;;5115701;28;20078;-69
2023/08/20 10:27:40;;;;;;;5.32;0.73;;;24.70;99.90;;;;;;5115746;28;20398;-69
2023/08/20 10:30:18;;;;;;;2.58;1.42;;;23.70;95.70;;;;;;5114431;28;20127;-69
2023/08/20 10:32:57;;;;;;;1.42;0.90;;;23.70;19.50;;;;;;5114025;28;20123;-69
2023/08/20 10:35:28;;;;;;;4.18;0.95;;;23.60;1.00;;;;;;5115216;28;20084;-68
2023/08/20 10:38:11;;;;;;;2.05;0.80;;;23.40;1.00;;;;;;5115562;28;20040;-68
2023/08/20 10:40:53;;;;;;;2.15;0.60;;;23.40;1.00;;;;;;5115504;28;20119;-68
2023/08/20 10:43:28;;;;;;;4.55;1.80;;;23.30;1.00;;;;;;5115416;28;20035;-65
2023/08/20 10:46:15;;;;;;;4.43;1.05;;;23.40;1.00;;;;;;5115037;28;20114;-65
2023/08/20 10:48:42;;;;;;;4.05;1.02;;;23.50;1.00;;;;;;5115311;28;20042;-65
2023/08/20 10:51:09;;;;;;;3.72;1.20;;;23.50;1.00;;;;;;5114851;28;20075;-65
2023/08/20 10:53:35;;;;;;;3.05;1.25;;;23.60;1.00;;;;;;5115296;28;20419;-65
2023/08/20 10:56:17;;;;;;;2.05;0.70;;;23.60;1.00;;;;;;5114875;28;20165;-65
2023/08/20 10:58:47;;;;;;;3.17;1.17;;;23.70;99.90;;;;;;5114862;28;20605;-69
2023/08/20 11:01:18;;;;;;;2.50;1.10;;;23.70;99.90;;;;;;5115037;28;20056;-73
2023/08/20 11:03:49;;;;;;;2.97;1.10;;;23.70;99.90;;;;;;5113573;28;20048;-68
2023/08/20 11:06:16;;;;;;;3.38;0.80;;;23.80;99.90;;;;;;5114047;28;20134;-69
2023/08/20 11:08:42;;;;;;;5.22;1.27;;;23.90;99.90;;;;;;5113328;28;20035;-68
2023/08/20 11:11:09;;;;;;;3.20;1.05;;;23.90;1.00;;;;;;5114815;28;20043;-68
2023/08/20 11:13:35;;;;;;;3.28;1.33;;;23.90;99.90;;;;;;5114693;28;20034;-69
2023/08/20 11:16:05;;;;;;;5.10;1.00;;;23.90;99.90;;;;;;5114540;28;20032;-69
2023/08/20 11:18:32;;;;;;;5.43;1.10;;;23.70;99.90;;;;;;5114724;28;20039;-69
2023/08/20 11:20:58;;;;;;;1.90;1.10;;;23.60;99.90;;;;;;5114659;28;20035;-69
2023/08/20 11:23:24;;;;;;;1.98;1.23;;;23.50;99.90;;;;;;5114627;28;20548;-69
2023/08/20 11:25:50;;;;;;;1.85;0.70;;;23.60;99.90;;;;;;5114633;28;20092;-69
2023/08/20 11:28:16;;;;;;;1.80;0.88;;;23.60;99.90;;;;;;5114504;28;20036;-69
2023/08/20 11:30:41;;;;;;;3.42;0.85;;;23.80;99.90;;;;;;5114474;28;20535;-69
2023/08/20 11:33:08;;;;;;;3.70;1.25;;;23.80;99.90;;;;;;5114165;28;20040;-68
2023/08/20 11:35:35;;;;;;;1.85;0.93;;;23.90;99.90;;;;;;5114110;28;20038;-69
2023/08/20 11:38:02;;;;;;;1.33;0.75;;;23.90;99.90;;;;;;5114413;28;20035;-72
2023/08/20 11:40:28;;;;;;;2.58;1.00;;;23.90;99.90;;;;;;5114316;28;20036;-75
2023/08/20 11:42:53;;;;;;;1.80;0.82;;;23.90;99.90;;;;;;5112751;28;20047;-75
2023/08/20 11:45:19;;;;;;;2.85;0.90;;;23.90;99.90;;;;;;5112725;28;20039;-70
2023/08/20 11:47:45;;;;;;;1.05;0.68;;;23.90;99.90;;;;;;5114282;28;20103;-69
2023/08/20 11:50:10;;;;;;;1.48;0.80;;;24.00;99.90;;;;;;5114149;28;20043;-69
2023/08/20 11:52:36;;;;;;;4.53;1.27;;;24.10;99.90;;;;;;5112628;28;20043;-69
2023/08/20 11:55:03;;;;;;;2.47;1.00;;;24.20;99.90;;;;;;5095849;28;20044;-69
2023/08/20 11:57:29;;;;;;;1.55;0.77;;;24.30;99.90;;;;;;5113787;28;20039;-68
2023/08/20 11:59:59;;;;;;;1.08;0.63;;;24.30;99.90;;;;;;5114048;28;20031;-69
2023/08/20 12:02:27;;;;;;;0.85;0.65;;;24.40;99.90;;;;;;5114036;28;20039;-69
2023/08/20 12:04:57;;;;;;;1.02;0.50;;;24.40;99.90;;;;;;5113936;28;20047;-69
2023/08/20 12:07:26;;;;;;;1.70;0.80;;;24.50;87.00;;;;;;5112270;28;20087;-69
2023/08/20 12:09:53;;;;;;;1.25;0.50;;;24.50;77.20;;;;;;5113618;28;20044;-68
2023/08/20 12:12:20;;;;;;;2.55;0.77;;;25.40;33.80;;;;;;5113754;28;20046;-69
2023/08/20 12:14:46;;;;;;;3.03;1.20;;;24.60;37.20;;;;;;5113599;28;20055;-69
2023/08/20 12:17:12;;;;;;;2.92;0.80;;;24.60;59.40;;;;;;5112866;28;20031;-69
2023/08/20 12:19:37;;;;;;;2.67;1.15;;;24.90;36.20;;;;;;5113710;28;20035;-69
2023/08/20 12:22:03;;;;;;;2.08;1.25;;;24.70;13.20;;;;;;5113671;28;20122;-69
2023/08/20 12:24:29;;;;;;;2.60;1.05;;;24.60;1.00;;;;;;5113767;28;20047;-70
2023/08/20 12:26:55;;;;;;;1.33;0.85;;;24.70;6.50;;;;;;5113764;28;20479;-70
2023/08/20 12:29:20;;;;;;;0.98;0.57;;;24.70;1.00;;;;;;5113634;28;20036;-72
2023/08/20 12:31:46;;;;;;;1.15;0.50;;;24.70;1.00;;;;;;5111858;28;20075;-72
2023/08/20 12:34:11;;;;;;;1.02;0.60;;;24.80;1.00;;;;;;5112220;28;20487;-70
2023/08/20 12:36:37;;;;;;;0.77;0.50;;;24.80;1.00;;;;;;5112332;28;20035;-70
2023/08/20 12:39:04;;;;;;;3.78;1.15;;;24.90;1.00;;;;;;5113421;28;20031;-70
2023/08/20 12:41:30;;;;;;;2.83;1.15;;;24.90;1.00;;;;;;5111971;28;20093;-70
2023/08/20 12:43:56;;;;;;;1.33;0.73;;;24.90;1.00;;;;;;5111838;28;20118;-70
2023/08/20 12:46:21;;;;;;;2.67;1.00;;;24.90;1.00;;;;;;5113418;28;20074;-70